Time;durP1;ratioP1;P1;durP2;ratioP2;P2;SDS_P1;SDS_P2;PMS_P1;PMS_P2;Temp;Humidity;BMP_temperature;BMP_pressure;BME280_temperature;BME280_humidity;BME280_pressure;Samples;Min_cycle;Max_cycle;Signal;HPM_P1;HPM_P2
2023/06/16 00:01:23;;;;;;;6.97;2.15;;;14.90;99.90;;;;;;5071201;28;20032;-81
2023/06/16 00:03:51;;;;;;;4.68;2.20;;;14.70;99.90;;;;;;5071889;28;20115;-81
2023/06/16 00:06:19;;;;;;;6.95;2.40;;;14.70;99.90;;;;;;5070384;28;20041;-81
2023/06/16 00:08:47;;;;;;;3.47;2.20;;;14.70;99.90;;;;;;5070101;28;20072;-81
2023/06/16 00:11:16;;;;;;;7.43;2.40;;;14.60;99.90;;;;;;5072734;28;20068;-80
2023/06/16 00:13:43;;;;;;;4.80;2.75;;;14.50;99.90;;;;;;5103194;28;20094;-80
2023/06/16 00:16:12;;;;;;;3.47;2.67;;;14.50;99.90;;;;;;5072999;28;20501;-80
2023/06/16 00:18:43;;;;;;;5.15;2.47;;;14.50;99.90;;;;;;5066597;28;20513;-80
2023/06/16 00:21:19;;;;;;;7.80;2.97;;;14.40;99.90;;;;;;5069646;28;20044;-81
2023/06/16 00:23:45;;;;;;;6.03;2.70;;;14.30;99.90;;;;;;5071597;28;20044;-81
2023/06/16 00:26:11;;;;;;;4.43;2.63;;;14.20;99.90;;;;;;5073030;28;20119;-81
2023/06/16 00:28:38;;;;;;;4.05;2.67;;;14.00;99.90;;;;;;5070708;28;20112;-81
2023/06/16 00:31:03;;;;;;;6.43;2.35;;;13.90;99.90;;;;;;5073532;28;20062;-81
2023/06/16 00:33:29;;;;;;;5.05;2.75;;;13.80;99.90;;;;;;5072329;28;21380;-81
2023/06/16 00:35:54;;;;;;;3.30;2.90;;;13.70;99.90;;;;;;5069527;28;20101;-81
2023/06/16 00:38:20;;;;;;;5.70;2.88;;;13.70;99.90;;;;;;5072145;28;20063;-81
2023/06/16 00:40:45;;;;;;;13.43;2.75;;;13.50;99.90;;;;;;5068207;28;20072;-80
2023/06/16 00:43:11;;;;;;;9.52;3.38;;;13.40;99.90;;;;;;5072805;28;20403;-80
2023/06/16 00:45:36;;;;;;;10.27;3.28;;;13.30;99.90;;;;;;5071541;28;20032;-81
2023/06/16 00:48:02;;;;;;;12.02;3.10;;;13.20;99.90;;;;;;5072403;28;20097;-80
2023/06/16 00:50:28;;;;;;;7.90;3.03;;;13.10;99.90;;;;;;5070554;28;20148;-80
2023/06/16 00:52:54;;;;;;;7.07;2.67;;;13.00;99.90;;;;;;5070498;28;20197;-80
2023/06/16 00:55:21;;;;;;;8.43;2.35;;;13.00;99.90;;;;;;5104505;28;20491;-80
2023/06/16 00:57:49;;;;;;;5.97;1.92;;;13.00;99.90;;;;;;5069621;28;20534;-80
2023/06/16 01:00:15;;;;;;;6.03;2.33;;;13.00;99.90;;;;;;5068661;28;20125;-80
2023/06/16 01:02:44;;;;;;;6.45;2.97;;;13.00;99.90;;;;;;5069853;28;20044;-81
2023/06/16 01:05:11;;;;;;;4.38;2.55;;;13.00;99.90;;;;;;5068463;28;20041;-82
2023/06/16 01:07:41;;;;;;;7.20;2.88;;;13.10;99.90;;;;;;5067287;28;20837;-80
2023/06/16 01:10:24;;;;;;;6.03;2.45;;;13.10;99.90;;;;;;5066952;28;20040;-81
2023/06/16 01:13:07;;;;;;;3.92;2.55;;;13.00;99.90;;;;;;5068420;28;20513;-80
2023/06/16 01:15:35;;;;;;;7.30;2.47;;;13.00;99.90;;;;;;5068685;28;20590;-80
2023/06/16 01:18:01;;;;;;;4.07;2.78;;;12.90;99.90;;;;;;5067275;28;20044;-80
2023/06/16 01:20:47;;;;;;;3.08;2.53;;;13.00;99.90;;;;;;5102057;28;20040;-80
2023/06/16 01:23:57;;;;;;;2.70;2.35;;;12.90;99.90;;;;;;5073202;28;20052;-81
2023/06/16 01:26:25;;;;;;;7.55;2.70;;;12.90;99.90;;;;;;5059643;28;20051;-81
2023/06/16 01:28:52;;;;;;;5.40;2.83;;;12.90;99.90;;;;;;5069682;28;20056;-80
2023/06/16 01:31:19;;;;;;;6.75;3.20;;;13.00;99.90;;;;;;5069778;28;20086;-80
2023/06/16 01:33:47;;;;;;;5.53;2.70;;;12.90;99.90;;;;;;5068412;28;20052;-80
2023/06/16 01:36:15;;;;;;;8.90;3.03;;;13.00;99.90;;;;;;5103664;28;20418;-80
2023/06/16 01:38:42;;;;;;;3.53;2.97;;;13.10;99.90;;;;;;5069774;28;20064;-80
2023/06/16 01:41:08;;;;;;;9.05;2.85;;;13.10;99.90;;;;;;5071696;28;20045;-81
2023/06/16 01:43:35;;;;;;;6.50;3.40;;;13.20;99.90;;;;;;5072027;28;20053;-80
2023/06/16 01:46:01;;;;;;;3.97;2.90;;;13.30;99.90;;;;;;5071654;28;20071;-81
2023/06/16 01:48:27;;;;;;;3.63;2.92;;;13.30;99.90;;;;;;5102233;28;20036;-80
2023/06/16 01:50:53;;;;;;;4.60;3.22;;;13.30;99.90;;;;;;5071369;28;20040;-80
2023/06/16 01:53:19;;;;;;;7.70;3.30;;;13.30;99.90;;;;;;5068374;28;20033;-81
2023/06/16 01:55:49;;;;;;;16.05;4.82;;;13.20;99.90;;;;;;5068741;28;20080;-80
2023/06/16 01:58:16;;;;;;;11.07;3.67;;;13.20;99.90;;;;;;5070680;28;20048;-80
2023/06/16 02:00:54;;;;;;;9.52;3.15;;;13.10;99.90;;;;;;5071935;28;20067;-80
2023/06/16 02:03:31;;;;;;;14.63;3.50;;;13.10;99.90;;;;;;5098840;28;20372;-80
2023/06/16 02:06:01;;;;;;;11.27;3.15;;;13.10;99.90;;;;;;5101514;28;20044;-80
2023/06/16 02:08:29;;;;;;;8.45;3.53;;;13.10;99.90;;;;;;5067561;28;20082;-80
2023/06/16 02:10:55;;;;;;;12.32;3.72;;;13.10;99.90;;;;;;5072633;28;20036;-80
2023/06/16 02:13:21;;;;;;;4.90;3.28;;;13.10;99.90;;;;;;5069062;28;20072;-81
2023/06/16 02:15:47;;;;;;;4.22;3.80;;;13.00;99.90;;;;;;5071235;28;20502;-81
2023/06/16 02:18:12;;;;;;;5.72;3.30;;;13.00;99.90;;;;;;5067487;28;20379;-81
2023/06/16 02:20:38;;;;;;;6.32;3.75;;;12.90;99.90;;;;;;5070042;28;20040;-80
2023/06/16 02:23:04;;;;;;;5.25;3.70;;;12.90;99.90;;;;;;5066076;28;20047;-79
2023/06/16 02:25:29;;;;;;;15.27;4.05;;;12.90;99.90;;;;;;5072577;28;20045;-80
2023/06/16 02:27:55;;;;;;;5.97;4.60;;;12.80;99.90;;;;;;5071712;28;20037;-81
2023/06/16 02:30:21;;;;;;;5.30;4.43;;;13.00;99.90;;;;;;5070398;28;20052;-81
2023/06/16 02:32:48;;;;;;;10.98;4.82;;;13.10;99.90;;;;;;5067965;28;20044;-81
2023/06/16 02:35:14;;;;;;;8.32;5.63;;;13.20;99.90;;;;;;5066591;28;20387;-81
2023/06/16 02:37:41;;;;;;;6.50;5.07;;;13.30;99.90;;;;;;5068185;28;20637;-80
2023/06/16 02:40:08;;;;;;;7.82;5.10;;;13.40;99.90;;;;;;5067756;28;20514;-81
2023/06/16 02:42:34;;;;;;;5.85;4.70;;;13.50;99.90;;;;;;5067249;28;20104;-81
2023/06/16 02:45:00;;;;;;;7.07;4.55;;;13.60;99.90;;;;;;5066267;28;20040;-81
2023/06/16 02:47:26;;;;;;;6.68;5.28;;;13.70;99.90;;;;;;5069094;28;20097;-80
2023/06/16 02:49:52;;;;;;;7.13;5.35;;;13.70;99.90;;;;;;5068405;28;20124;-81
2023/06/16 02:52:18;;;;;;;9.05;6.03;;;13.80;99.90;;;;;;5065462;28;20044;-81
2023/06/16 02:54:43;;;;;;;6.60;5.38;;;13.90;99.90;;;;;;5066608;28;20048;-81
2023/06/16 02:57:09;;;;;;;8.98;5.47;;;13.90;99.90;;;;;;5069038;28;20048;-82
2023/06/16 02:59:36;;;;;;;11.27;5.15;;;14.00;99.90;;;;;;5065792;28;20119;-80
2023/06/16 03:02:01;;;;;;;6.80;5.18;;;14.00;99.90;;;;;;5067545;28;20044;-81
2023/06/16 03:04:27;;;;;;;9.05;5.20;;;14.00;99.90;;;;;;5068928;28;20032;-81
2023/06/16 03:06:57;;;;;;;8.38;5.68;;;14.10;99.90;;;;;;5067231;28;20117;-80
2023/06/16 03:09:26;;;;;;;10.00;6.18;;;14.10;99.90;;;;;;5067433;28;20388;-80
2023/06/16 03:11:53;;;;;;;11.85;5.50;;;14.20;99.90;;;;;;5066917;28;20056;-80
2023/06/16 03:14:20;;;;;;;8.05;5.18;;;14.50;99.90;;;;;;5067507;28;20565;-80
2023/06/16 03:16:48;;;;;;;8.43;4.60;;;14.10;99.90;;;;;;5068750;28;20315;-81
2023/06/16 03:19:15;;;;;;;9.35;5.40;;;14.10;99.90;;;;;;5062879;28;20064;-80
2023/06/16 03:21:41;;;;;;;6.90;4.93;;;14.10;99.90;;;;;;5067536;28;20059;-79
2023/06/16 03:24:06;;;;;;;11.88;5.50;;;14.00;99.90;;;;;;5069154;28;20040;-82
2023/06/16 03:26:34;;;;;;;7.85;5.22;;;13.90;99.90;;;;;;5067509;28;20059;-81
2023/06/16 03:29:00;;;;;;;5.65;5.15;;;13.80;99.90;;;;;;5065958;28;20056;-80
2023/06/16 03:31:26;;;;;;;8.00;4.90;;;13.80;99.90;;;;;;5067733;28;20046;-80
2023/06/16 03:33:52;;;;;;;6.40;5.57;;;13.80;99.90;;;;;;5070062;28;20129;-80
2023/06/16 03:36:20;;;;;;;7.20;5.63;;;13.80;99.90;;;;;;5069234;28;20041;-80
2023/06/16 03:38:45;;;;;;;7.05;6.30;;;13.80;99.90;;;;;;5065484;28;20040;-80
2023/06/16 03:41:11;;;;;;;10.40;5.65;;;13.80;99.90;;;;;;5082577;28;20048;-80
2023/06/16 03:43:37;;;;;;;7.80;6.68;;;13.80;99.90;;;;;;5067863;28;20071;-81
2023/06/16 03:46:02;;;;;;;8.88;6.45;;;13.80;99.90;;;;;;5066569;28;20499;-81
2023/06/16 03:48:28;;;;;;;8.23;6.22;;;13.90;99.90;;;;;;5061629;28;20542;-81
2023/06/16 03:50:53;;;;;;;12.25;8.60;;;13.90;99.90;;;;;;5064499;28;20028;-81
2023/06/16 03:53:20;;;;;;;10.98;7.80;;;13.90;99.90;;;;;;5067910;28;20036;-80
2023/06/16 03:55:47;;;;;;;9.07;7.55;;;13.90;99.90;;;;;;5065381;28;20044;-81
2023/06/16 03:58:16;;;;;;;11.05;7.60;;;14.10;99.90;;;;;;5065850;28;20039;-80
2023/06/16 04:00:45;;;;;;;9.55;8.18;;;14.10;99.90;;;;;;5064746;28;20040;-80
2023/06/16 04:03:11;;;;;;;16.52;8.63;;;14.10;99.90;;;;;;5063820;28;20492;-81
2023/06/16 04:05:37;;;;;;;9.23;8.40;;;14.10;99.90;;;;;;5064125;28;20045;-80
2023/06/16 04:08:03;;;;;;;13.73;9.20;;;14.10;99.90;;;;;;5067519;28;21003;-81
2023/06/16 04:10:29;;;;;;;13.35;8.60;;;14.10;99.90;;;;;;5064314;28;20055;-80
2023/06/16 04:12:54;;;;;;;8.98;8.10;;;14.20;99.90;;;;;;5064198;28;20044;-82
2023/06/16 04:15:20;;;;;;;9.00;8.07;;;14.20;99.90;;;;;;5063807;28;20049;-79
2023/06/16 04:17:46;;;;;;;8.98;8.07;;;14.20;99.90;;;;;;5064539;28;20109;-81
2023/06/16 04:20:12;;;;;;;10.35;8.82;;;14.20;99.90;;;;;;5062144;28;20037;-80
2023/06/16 04:22:38;;;;;;;9.60;8.63;;;14.20;99.90;;;;;;5064572;28;20089;-82
2023/06/16 04:25:05;;;;;;;10.90;9.10;;;14.40;99.90;;;;;;5065581;28;20483;-81
2023/06/16 04:27:32;;;;;;;10.52;8.07;;;14.50;99.90;;;;;;5080355;28;20506;-80
2023/06/16 04:29:58;;;;;;;8.73;7.93;;;14.80;99.90;;;;;;5068547;28;20044;-81
2023/06/16 04:32:23;;;;;;;7.50;6.80;;;15.10;99.90;;;;;;5069881;28;20043;-80
2023/06/16 04:34:49;;;;;;;9.15;7.35;;;15.90;99.90;;;;;;5068574;28;20127;-81
2023/06/16 04:37:16;;;;;;;8.43;7.63;;;17.10;99.90;;;;;;5069431;28;20108;-81
2023/06/16 04:39:42;;;;;;;9.48;6.97;;;18.40;99.90;;;;;;5068972;28;20040;-82
2023/06/16 04:42:09;;;;;;;7.80;7.10;;;18.90;99.90;;;;;;5069228;28;20103;-82
2023/06/16 04:44:35;;;;;;;9.00;7.20;;;19.50;99.90;;;;;;5048109;28;20079;-84
2023/06/16 04:47:02;;;;;;;11.15;6.82;;;20.30;99.90;;;;;;5063907;28;20051;-82
2023/06/16 04:49:27;;;;;;;7.47;6.82;;;21.30;99.90;;;;;;5067052;28;20487;-81
2023/06/16 04:51:53;;;;;;;11.10;6.60;;;22.10;99.90;;;;;;5064624;28;20059;-83
2023/06/16 04:54:19;;;;;;;8.48;6.60;;;23.00;99.90;;;;;;5063230;28;20051;-81
2023/06/16 04:56:45;;;;;;;10.70;6.63;;;23.80;99.90;;;;;;5060559;28;20385;-82
2023/06/16 04:59:11;;;;;;;11.65;7.22;;;24.80;99.90;;;;;;5063135;28;20032;-83
2023/06/16 05:01:39;;;;;;;9.27;7.50;;;25.60;99.90;;;;;;5052433;28;20047;-84
2023/06/16 05:04:04;;;;;;;9.30;6.60;;;25.90;98.50;;;;;;5047212;28;20048;-83
2023/06/16 05:06:35;;;;;;;11.30;6.90;;;25.70;98.00;;;;;;5067872;28;20098;-84
2023/06/16 05:09:00;;;;;;;9.82;6.22;;;26.20;97.70;;;;;;5065280;28;20048;-82
2023/06/16 05:11:26;;;;;;;7.10;6.40;;;26.60;97.60;;;;;;5067344;28;20036;-82
2023/06/16 05:13:51;;;;;;;10.40;8.00;;;25.90;97.00;;;;;;5053063;28;20040;-83
2023/06/16 05:16:17;;;;;;;9.93;6.53;;;24.80;97.00;;;;;;5066342;28;20043;-82
2023/06/16 05:18:42;;;;;;;8.38;7.57;;;24.60;97.90;;;;;;5097338;28;20040;-82
2023/06/16 05:21:08;;;;;;;8.55;7.50;;;24.70;97.90;;;;;;5064264;28;20028;-81
2023/06/16 05:23:36;;;;;;;9.95;8.20;;;24.80;98.10;;;;;;5065097;28;20036;-83
2023/06/16 05:26:01;;;;;;;15.48;8.73;;;24.30;98.20;;;;;;5065510;28;20076;-81
2023/06/16 05:28:27;;;;;;;9.13;8.07;;;24.00;98.70;;;;;;5069725;28;20431;-82
2023/06/16 05:30:53;;;;;;;12.73;8.85;;;23.60;99.00;;;;;;5062564;28;20080;-83
2023/06/16 05:33:18;;;;;;;15.20;9.45;;;23.50;99.40;;;;;;5066226;28;20049;-82
2023/06/16 05:35:44;;;;;;;15.35;8.65;;;23.30;99.70;;;;;;5070791;28;20044;-81
2023/06/16 05:38:10;;;;;;;15.40;9.93;;;23.20;99.90;;;;;;5069027;28;20029;-80
2023/06/16 05:40:35;;;;;;;12.88;9.13;;;23.10;99.90;;;;;;5069597;28;20146;-81
2023/06/16 05:43:01;;;;;;;13.13;10.02;;;23.00;99.90;;;;;;5067633;28;20091;-81
2023/06/16 05:45:27;;;;;;;13.52;10.35;;;23.10;99.90;;;;;;5066920;28;20499;-82
2023/06/16 05:47:52;;;;;;;10.65;9.38;;;22.90;99.90;;;;;;5069031;28;20543;-80
2023/06/16 05:50:18;;;;;;;11.32;10.15;;;23.00;99.90;;;;;;5067483;28;20040;-81
2023/06/16 05:52:43;;;;;;;12.32;11.13;;;23.00;99.90;;;;;;5065351;28;20533;-81
2023/06/16 05:55:09;;;;;;;13.32;9.88;;;23.00;99.90;;;;;;5064998;28;20064;-82
2023/06/16 05:57:36;;;;;;;11.65;10.27;;;23.10;99.90;;;;;;5067830;28;20049;-82
2023/06/16 06:00:02;;;;;;;11.65;10.55;;;23.20;99.90;;;;;;5099886;28;20450;-81
2023/06/16 06:02:28;;;;;;;11.77;10.68;;;23.20;99.90;;;;;;5071653;28;20068;-80
2023/06/16 06:04:53;;;;;;;11.57;10.57;;;23.40;99.90;;;;;;5069470;28;20065;-82
2023/06/16 06:07:19;;;;;;;10.70;9.73;;;23.40;99.90;;;;;;5071951;28;20635;-81
2023/06/16 06:09:45;;;;;;;12.30;11.00;;;23.50;99.90;;;;;;5070044;28;20090;-81
2023/06/16 06:12:11;;;;;;;11.93;10.70;;;23.60;99.90;;;;;;5069565;28;20048;-82
2023/06/16 06:14:37;;;;;;;10.70;9.70;;;23.60;99.90;;;;;;5068654;28;20128;-82
2023/06/16 06:17:03;;;;;;;10.90;9.77;;;23.80;99.90;;;;;;5069880;28;20074;-82
2023/06/16 06:19:29;;;;;;;11.90;10.68;;;23.90;99.90;;;;;;5065664;28;20040;-81
2023/06/16 06:21:55;;;;;;;12.30;10.40;;;24.00;99.90;;;;;;5069795;28;20380;-81
2023/06/16 06:24:20;;;;;;;10.98;10.07;;;24.10;99.90;;;;;;5067779;28;20040;-82
2023/06/16 06:26:46;;;;;;;10.20;8.88;;;24.30;99.90;;;;;;5066042;28;20050;-82
2023/06/16 06:29:13;;;;;;;9.23;8.43;;;24.30;99.90;;;;;;5072138;28;20119;-85
2023/06/16 06:31:40;;;;;;;9.88;8.85;;;24.30;99.90;;;;;;5086187;28;20135;-84
2023/06/16 06:34:06;;;;;;;8.15;7.35;;;24.60;99.70;;;;;;5065815;28;20072;-84
2023/06/16 06:36:34;;;;;;;14.45;9.43;;;24.70;99.30;;;;;;5064468;28;20043;-84
2023/06/16 06:38:59;;;;;;;9.05;8.18;;;24.90;99.10;;;;;;5070584;28;20037;-83
2023/06/16 06:41:26;;;;;;;9.40;8.68;;;24.90;99.00;;;;;;5073202;28;20043;-84
2023/06/16 06:43:52;;;;;;;8.73;7.93;;;25.10;98.90;;;;;;5061078;28;20040;-84
2023/06/16 06:46:18;;;;;;;8.70;7.97;;;25.00;98.80;;;;;;5067068;28;20040;-84
2023/06/16 06:48:44;;;;;;;9.30;8.35;;;25.10;98.60;;;;;;5055692;28;20089;-85
2023/06/16 06:51:12;;;;;;;8.27;7.18;;;25.00;98.30;;;;;;5064769;28;20041;-85
2023/06/16 06:53:37;;;;;;;9.10;8.40;;;25.30;98.60;;;;;;5066313;28;20529;-84
2023/06/16 06:56:03;;;;;;;10.07;8.90;;;25.00;98.60;;;;;;5066588;28;20025;-85
2023/06/16 06:58:29;;;;;;;10.15;8.18;;;25.20;98.20;;;;;;5055367;28;20077;-84
2023/06/16 07:00:54;;;;;;;9.10;8.15;;;25.00;97.90;;;;;;5070724;28;20563;-84
2023/06/16 07:03:20;;;;;;;8.90;7.95;;;25.30;98.10;;;;;;5065474;28;20033;-84
2023/06/16 07:05:46;;;;;;;9.45;8.60;;;25.40;98.10;;;;;;5054570;28;20086;-85
2023/06/16 07:08:11;;;;;;;9.20;8.18;;;25.50;97.60;;;;;;5058800;28;20055;-81
2023/06/16 07:10:37;;;;;;;8.43;7.70;;;25.60;97.80;;;;;;5064267;28;20036;-81
2023/06/16 07:13:02;;;;;;;7.00;6.47;;;25.70;97.70;;;;;;5061070;28;20045;-81
2023/06/16 07:15:28;;;;;;;7.90;7.03;;;25.90;97.20;;;;;;5058435;28;20502;-81
2023/06/16 07:17:54;;;;;;;7.97;7.25;;;26.00;96.80;;;;;;5066375;28;20032;-81
2023/06/16 07:20:19;;;;;;;10.05;7.45;;;26.20;95.90;;;;;;5067811;28;20074;-80
2023/06/16 07:22:45;;;;;;;7.88;6.82;;;26.20;95.80;;;;;;5064759;28;20036;-81
2023/06/16 07:25:15;;;;;;;7.40;6.80;;;26.20;96.00;;;;;;5084599;28;20044;-81
2023/06/16 07:27:42;;;;;;;8.32;6.60;;;26.30;96.10;;;;;;5064486;28;20068;-82
2023/06/16 07:30:09;;;;;;;6.88;6.10;;;26.40;96.20;;;;;;5064154;28;20044;-81
2023/06/16 07:32:36;;;;;;;8.65;6.28;;;26.50;95.80;;;;;;5065172;28;20041;-81
2023/06/16 07:35:02;;;;;;;6.38;5.85;;;26.50;95.70;;;;;;5062792;28;20043;-81
2023/06/16 07:37:27;;;;;;;6.00;5.40;;;26.70;95.50;;;;;;5066652;28;20174;-81
2023/06/16 07:39:53;;;;;;;8.15;5.35;;;26.90;95.00;;;;;;5065232;28;20120;-81
2023/06/16 07:42:19;;;;;;;5.55;4.75;;;26.90;94.70;;;;;;5059547;28;20052;-81
2023/06/16 07:44:44;;;;;;;6.63;5.57;;;26.90;95.10;;;;;;5084612;28;20041;-81
2023/06/16 07:47:10;;;;;;;6.05;5.55;;;27.20;94.70;;;;;;5064738;28;20769;-81
2023/06/16 07:49:36;;;;;;;5.30;4.80;;;27.30;94.50;;;;;;5061204;28;20049;-81
2023/06/16 07:52:02;;;;;;;5.00;4.60;;;27.40;94.20;;;;;;5060777;28;20124;-81
2023/06/16 07:54:27;;;;;;;6.97;5.70;;;27.50;94.10;;;;;;5062250;28;20032;-82
2023/06/16 07:56:53;;;;;;;5.45;5.03;;;27.40;94.00;;;;;;5061246;28;20053;-82
2023/06/16 07:59:19;;;;;;;5.60;5.10;;;27.50;93.90;;;;;;5061830;28;20123;-81
2023/06/16 08:01:45;;;;;;;5.72;5.20;;;27.30;93.90;;;;;;5059439;28;20091;-81
2023/06/16 08:04:11;;;;;;;6.13;5.00;;;27.50;94.00;;;;;;5063709;28;20071;-81
2023/06/16 08:06:37;;;;;;;5.80;5.30;;;27.60;94.00;;;;;;5068825;28;20028;-81
2023/06/16 08:09:04;;;;;;;7.25;5.00;;;27.80;93.60;;;;;;5067115;28;20514;-81
2023/06/16 08:11:29;;;;;;;18.40;4.82;;;28.00;93.40;;;;;;5069151;28;20135;-82
2023/06/16 08:13:55;;;;;;;5.43;4.72;;;28.10;93.20;;;;;;5067141;28;20080;-82
2023/06/16 08:16:20;;;;;;;7.00;5.57;;;28.10;93.00;;;;;;5069016;28;20044;-82
2023/06/16 08:18:46;;;;;;;6.85;5.10;;;28.20;92.80;;;;;;5063582;28;20045;-81
2023/06/16 08:21:12;;;;;;;7.70;5.03;;;28.10;92.70;;;;;;5066252;28;20072;-82
2023/06/16 08:23:37;;;;;;;5.28;4.88;;;28.00;92.80;;;;;;5062946;28;20048;-81
2023/06/16 08:26:05;;;;;;;5.53;4.97;;;27.90;92.70;;;;;;5063754;28;20041;-82
2023/06/16 08:28:30;;;;;;;6.30;5.65;;;28.00;92.80;;;;;;5065646;28;20113;-81
2023/06/16 08:30:56;;;;;;;8.27;4.30;;;28.00;92.90;;;;;;5063497;28;20453;-82
2023/06/16 08:33:21;;;;;;;9.32;3.60;;;28.10;93.00;;;;;;5066126;28;20475;-81
2023/06/16 08:35:47;;;;;;;6.43;4.38;;;28.10;92.50;;;;;;5067128;28;20142;-81
2023/06/16 08:38:12;;;;;;;4.03;3.40;;;28.20;92.40;;;;;;5068571;28;20044;-80
2023/06/16 08:40:38;;;;;;;5.28;3.08;;;28.30;91.80;;;;;;5071214;28;20067;-80
2023/06/16 08:43:06;;;;;;;5.88;3.40;;;28.50;91.70;;;;;;5067604;28;20036;-81
2023/06/16 08:45:35;;;;;;;3.72;3.42;;;28.60;91.20;;;;;;5099508;28;20074;-80
2023/06/16 08:48:02;;;;;;;7.20;3.97;;;28.70;90.90;;;;;;5064983;28;20043;-81
2023/06/16 08:50:28;;;;;;;4.07;3.45;;;28.60;90.90;;;;;;5063135;28;20056;-82
2023/06/16 08:52:57;;;;;;;5.95;3.20;;;28.70;91.00;;;;;;5063746;28;20407;-81
2023/06/16 08:55:23;;;;;;;3.78;3.47;;;28.70;90.80;;;;;;5065274;28;20040;-81
2023/06/16 08:57:54;;;;;;;4.55;3.47;;;28.50;90.90;;;;;;5068208;28;20036;-81
2023/06/16 09:00:21;;;;;;;5.13;4.05;;;28.50;90.90;;;;;;5066304;28;20442;-81
2023/06/16 09:02:48;;;;;;;5.00;3.28;;;28.50;90.90;;;;;;5097636;28;20083;-81
2023/06/16 09:05:16;;;;;;;3.75;3.10;;;28.50;90.90;;;;;;5063761;28;20094;-81
2023/06/16 09:07:42;;;;;;;5.93;3.95;;;28.60;91.40;;;;;;5063320;28;20495;-82
2023/06/16 09:10:08;;;;;;;10.63;4.07;;;28.70;90.70;;;;;;5063732;28;20044;-81
2023/06/16 09:12:35;;;;;;;3.53;2.95;;;28.80;90.80;;;;;;5069576;28;20044;-80
2023/06/16 09:15:01;;;;;;;5.22;3.30;;;29.00;90.90;;;;;;5093771;28;20052;-81
2023/06/16 09:17:29;;;;;;;4.88;3.45;;;28.90;90.60;;;;;;5100557;28;20043;-81
2023/06/16 09:19:55;;;;;;;4.80;3.78;;;28.90;90.70;;;;;;5062439;28;20045;-81
2023/06/16 09:22:26;;;;;;;4.85;3.47;;;28.90;90.90;;;;;;5065253;28;20036;-81
2023/06/16 09:24:59;;;;;;;4.05;3.55;;;29.00;90.70;;;;;;5065652;28;20048;-82
2023/06/16 09:27:44;;;;;;;7.55;3.75;;;29.10;91.10;;;;;;5097293;28;20085;-81
2023/06/16 09:30:18;;;;;;;6.57;3.33;;;29.10;90.80;;;;;;5061776;28;20097;-81
2023/06/16 09:32:49;;;;;;;10.80;2.95;;;29.20;90.80;;;;;;5066820;28;20041;-81
2023/06/16 09:35:22;;;;;;;3.80;3.13;;;29.20;90.60;;;;;;5064323;28;20129;-82
2023/06/16 09:37:50;;;;;;;6.43;2.77;;;29.00;90.40;;;;;;5063212;28;20052;-82
2023/06/16 09:40:18;;;;;;;9.88;4.03;;;29.00;90.30;;;;;;5064537;28;20115;-82
2023/06/16 09:42:44;;;;;;;9.05;2.80;;;29.00;89.20;;;;;;5097701;28;20060;-81
2023/06/16 09:45:15;;;;;;;5.03;2.90;;;29.00;89.00;;;;;;5067049;28;20048;-81
2023/06/16 09:47:45;;;;;;;5.72;2.97;;;29.00;89.30;;;;;;5068338;28;20033;-80
2023/06/16 09:50:16;;;;;;;5.05;2.95;;;28.80;89.70;;;;;;5064950;28;20041;-81
2023/06/16 09:52:46;;;;;;;3.25;2.60;;;29.00;88.50;;;;;;5064922;28;20040;-81
2023/06/16 09:55:13;;;;;;;2.67;2.47;;;28.90;87.10;;;;;;5062277;28;20128;-81
2023/06/16 09:57:40;;;;;;;7.68;2.97;;;29.10;87.40;;;;;;5064247;28;20045;-82
2023/06/16 10:00:15;;;;;;;9.02;2.97;;;29.20;87.40;;;;;;5062608;28;20044;-82
2023/06/16 10:02:42;;;;;;;;;;;29.30;87.10;;;;;;5062702;28;20044;-81
2023/06/16 10:05:09;;;;;;;3.58;2.58;;;29.30;84.90;;;;;;5062456;28;19920;-82
2023/06/16 10:07:45;;;;;;;4.90;1.95;;;29.30;85.00;;;;;;5062235;28;20049;-81
2023/06/16 10:10:11;;;;;;;3.00;2.70;;;29.20;86.00;;;;;;5061060;28;20032;-81
2023/06/16 10:12:44;;;;;;;4.53;2.03;;;29.30;85.20;;;;;;5063147;28;20507;-81
2023/06/16 10:15:15;;;;;;;2.95;2.20;;;29.20;84.10;;;;;;5092519;28;20052;-81
2023/06/16 10:17:41;;;;;;;2.38;1.98;;;29.30;84.10;;;;;;5090655;28;20076;-81
2023/06/16 10:20:12;;;;;;;3.63;2.03;;;29.40;83.10;;;;;;5067237;28;20092;-80
2023/06/16 10:22:38;;;;;;;3.75;2.40;;;29.40;82.20;;;;;;5063294;28;20127;-81
2023/06/16 10:25:04;;;;;;;3.13;2.00;;;29.40;82.00;;;;;;5064953;28;20464;-82
2023/06/16 10:27:30;;;;;;;2.25;2.05;;;29.40;80.70;;;;;;5062301;28;20424;-81
2023/06/16 10:30:01;;;;;;;2.95;2.67;;;29.50;80.60;;;;;;5066984;28;20043;-81
2023/06/16 10:32:26;;;;;;;4.75;2.42;;;29.40;79.90;;;;;;5069482;28;20045;-82
2023/06/16 10:34:56;;;;;;;6.32;2.03;;;29.30;80.10;;;;;;5064577;28;20063;-82
2023/06/16 10:37:27;;;;;;;7.50;2.30;;;29.60;80.70;;;;;;5067101;28;20067;-81
2023/06/16 10:39:59;;;;;;;3.25;1.77;;;29.40;79.70;;;;;;5065776;28;20044;-81
2023/06/16 10:42:25;;;;;;;2.63;1.83;;;29.40;78.40;;;;;;5067633;28;20502;-82
2023/06/16 10:44:52;;;;;;;2.92;2.05;;;29.50;78.40;;;;;;5067796;28;20055;-82
2023/06/16 10:47:17;;;;;;;3.30;1.77;;;29.30;78.00;;;;;;5066925;28;20391;-82
2023/06/16 10:49:49;;;;;;;6.80;1.98;;;29.30;78.90;;;;;;5062611;28;20056;-82
2023/06/16 10:52:44;;;;;;;7.72;2.10;;;29.20;78.40;;;;;;5063224;28;20514;-83
2023/06/16 10:55:25;;;;;;;4.25;2.00;;;29.10;78.70;;;;;;5063518;28;20057;-82
2023/06/16 10:58:19;;;;;;;2.58;1.67;;;29.10;78.50;;;;;;5066349;28;20040;-83
2023/06/16 11:01:04;;;;;;;2.63;1.95;;;29.20;77.70;;;;;;5062180;28;20031;-82
2023/06/16 11:03:35;;;;;;;5.55;2.45;;;29.20;77.80;;;;;;5062266;28;20449;-82
2023/06/16 11:06:02;;;;;;;7.78;2.10;;;29.30;76.40;;;;;;5081563;28;20037;-82
2023/06/16 11:08:28;;;;;;;7.93;2.03;;;29.20;76.50;;;;;;5060403;28;20056;-82
2023/06/16 11:10:56;;;;;;;3.47;2.00;;;29.20;77.00;;;;;;5064294;28;20044;-83
2023/06/16 11:13:40;;;;;;;6.63;2.10;;;29.20;76.30;;;;;;5064454;28;20056;-83
2023/06/16 11:16:06;;;;;;;12.82;1.90;;;29.40;77.60;;;;;;5063792;28;20056;-81
2023/06/16 11:18:38;;;;;;;8.02;2.03;;;29.30;78.50;;;;;;5063573;28;20048;-82
2023/06/16 11:21:07;;;;;;;2.13;1.83;;;29.10;76.20;;;;;;5062478;28;20514;-82
2023/06/16 11:23:34;;;;;;;5.78;1.70;;;29.20;76.30;;;;;;5090917;28;20082;-83
2023/06/16 11:26:09;;;;;;;3.15;2.08;;;29.20;75.40;;;;;;5064423;28;20055;-83
2023/06/16 11:28:42;;;;;;;8.00;2.05;;;29.30;76.40;;;;;;5064442;28;20068;-83
2023/06/16 11:31:10;;;;;;;4.43;1.67;;;29.20;74.70;;;;;;5065822;28;20037;-83
2023/06/16 11:33:35;;;;;;;4.55;1.67;;;29.40;73.70;;;;;;5050219;28;20116;-82
2023/06/16 11:36:15;;;;;;;4.00;1.65;;;29.30;73.80;;;;;;5065457;28;20132;-83
2023/06/16 11:38:43;;;;;;;7.57;1.85;;;29.30;72.20;;;;;;5062168;28;20044;-83
2023/06/16 11:41:16;;;;;;;3.88;1.50;;;29.20;72.80;;;;;;5062831;28;20839;-85
2023/06/16 11:43:42;;;;;;;8.30;1.70;;;29.00;73.50;;;;;;5064802;28;20028;-85
2023/06/16 11:46:08;;;;;;;2.53;1.70;;;29.00;73.70;;;;;;5067462;28;20079;-84
2023/06/16 11:48:33;;;;;;;4.45;1.60;;;28.90;73.00;;;;;;5069524;28;20076;-85
2023/06/16 11:51:00;;;;;;;2.15;1.60;;;28.90;72.40;;;;;;5067540;28;20049;-84
2023/06/16 11:53:26;;;;;;;6.38;1.70;;;28.90;72.20;;;;;;5066414;28;20095;-83
2023/06/16 11:55:51;;;;;;;8.65;1.92;;;28.90;71.70;;;;;;5066040;28;20037;-82
2023/06/16 11:58:17;;;;;;;3.90;1.67;;;28.80;72.60;;;;;;5066726;28;20081;-84
2023/06/16 12:00:45;;;;;;;4.82;1.90;;;28.80;72.00;;;;;;5065682;28;20179;-83
2023/06/16 12:03:11;;;;;;;3.42;2.03;;;28.90;72.00;;;;;;5063961;28;20153;-83
2023/06/16 12:05:38;;;;;;;3.58;1.70;;;29.10;72.80;;;;;;5066597;28;20143;-83
2023/06/16 12:08:04;;;;;;;2.88;1.80;;;29.10;72.80;;;;;;5063816;28;20033;-83
2023/06/16 12:10:29;;;;;;;2.28;1.55;;;29.00;72.00;;;;;;5064954;28;20467;-83
2023/06/16 12:12:55;;;;;;;3.45;1.80;;;29.00;72.40;;;;;;5067400;28;20117;-83
2023/06/16 12:15:23;;;;;;;2.17;1.50;;;29.10;73.10;;;;;;5066431;28;20041;-83
2023/06/16 12:17:49;;;;;;;2.75;1.70;;;29.10;73.80;;;;;;5067758;28;20067;-82
2023/06/16 12:20:16;;;;;;;2.75;2.08;;;29.10;73.40;;;;;;5067019;28;20454;-82
2023/06/16 12:22:44;;;;;;;5.00;1.83;;;29.10;73.60;;;;;;5066529;28;20457;-83
2023/06/16 12:25:15;;;;;;;2.75;1.90;;;29.10;72.50;;;;;;5067082;28;20106;-83
2023/06/16 12:27:49;;;;;;;3.78;1.90;;;28.90;72.50;;;;;;5066321;28;20079;-84
2023/06/16 12:30:15;;;;;;;2.50;2.05;;;29.00;72.00;;;;;;5084887;28;20036;-83
2023/06/16 12:32:41;;;;;;;4.72;1.80;;;28.90;71.20;;;;;;5062162;28;20145;-82
2023/06/16 12:35:07;;;;;;;3.22;1.80;;;28.80;71.30;;;;;;5064783;28;20579;-81
2023/06/16 12:37:33;;;;;;;5.32;1.95;;;28.90;71.20;;;;;;5064772;28;20041;-81
2023/06/16 12:40:06;;;;;;;5.05;1.58;;;28.90;70.90;;;;;;5096038;28;20040;-81
2023/06/16 12:42:33;;;;;;;3.28;1.75;;;29.00;71.00;;;;;;5103062;28;21617;-80
2023/06/16 12:45:01;;;;;;;4.07;1.90;;;28.90;70.60;;;;;;5068665;28;20117;-81
2023/06/16 12:47:27;;;;;;;2.63;1.70;;;28.80;70.60;;;;;;5095897;28;20075;-81